• Join FlightAware (Why Join?)
  • Login
  • US Flag 
04:05AM EST


 

Airport Tracker/Info


-or-


 

Live Flight TrackerFlight Track Log ✈ EJA583 ✈ 11-Jul-2013 ✈ KMAF - KAPA

Flight Track Log - Related Links

Times and Time Zones

All times are in EDT time to prevent confusion due to time zone crossing. See the EJA583 flight status page for this flight to view local times or setup timezone preferences in your user account.

Time Position Orientation Groundspeed Altitude Reporting Facility
EDT Latitude Longitude Course Direction KTS MPH feet Rate Location/Type
08:46AM 31.9236 -102.3133 349° North 251 289 7,300  Level Fort Worth Center
08:47AM 31.9669 -102.3792 308° West 251 289 9,300 1,980 Climbing Fort Worth Center
08:48AM 32.0453 -102.4031 346° North 247 284 11,300 1,980 Climbing Fort Worth Center
08:49AM 32.0922 -102.4842 304° West 265 305 13,300 1,980 Climbing Fort Worth Center
08:50AM 32.1172 -102.5861 286° West 302 348 15,300 2,100 Climbing Fort Worth Center
08:51AM 32.5675 -102.3474 352° North  Level FlightAware Approximate
08:51AM 32.1439 -102.6956 286° West 312 359 17,600  Level Fort Worth Center
08:52AM 32.6737 -102.3701 349° North  Level FlightAware Approximate
08:52AM 32.2078 -102.7631 318° Northwest 307 353 19,500  Level Fort Worth Center
08:53AM 32.2994 -102.7683 357° North 281 323 21,500 1,800 Climbing Fort Worth Center
08:54AM 32.3742 -102.7753 356° North 292 336 23,100 1,800 Climbing Fort Worth Center
08:55AM 32.4619 -102.7781 358° North 303 349 25,100 1,980 Climbing Fort Worth Center
08:56AM 32.5472 -102.7806 359° North 303 349 27,100 1,800 Climbing Fort Worth Center
08:57AM 32.6286 -102.7806 360° North 303 349 28,800 1,380 Climbing Fort Worth Center
08:58AM 32.7142 -102.7858 357° North 303 349 29,900 900 Climbing Fort Worth Center
08:59AM 32.8081 -102.7864 360° North 314 361 30,700 780 Climbing Fort Worth Center
09:00AM 32.9058 -102.7900 358° North 333 383 31,500 840 Climbing Fort Worth Center
09:01AM 33.0017 -102.7931 358° North 344 396 32,400 900 Climbing Fort Worth Center
09:02AM 33.1061 -102.7897 North 350 403 33,300 900 Climbing Fort Worth Center
09:03AM 33.2083 -102.7908 359° North 358 412 34,200 900 Climbing Fort Worth Center
09:04AM 33.3081 -102.8019 355° North 358 412 35,100 840 Climbing Fort Worth Center
09:05AM 33.4081 -102.8056 358° North 358 412 35,900 780 Climbing Fort Worth Center
09:06AM 33.5186 -102.8072 359° North 358 412 36,700 780 Climbing Fort Worth Center
09:07AM 33.6186 -102.8133 357° North 372 428 37,500 1,140 Climbing Fort Worth Center
09:08AM 33.7292 -102.8153 359° North 372 428 39,000 1,020 Climbing Fort Worth Center
09:10AM 33.8575 -102.8200 358° North 357 411 40,000 360 Climbing Albuquerque Center
09:11AM 33.9619 -102.8247 358° North 370 426 40,000  Level Albuquerque Center
09:12AM 34.0728 -102.8222 North 394 453 40,000  Level Albuquerque Center
09:13AM 34.1858 -102.8242 359° North 403 464 40,000  Level Albuquerque Center
09:14AM 34.3167 -102.8369 355° North 406 467 40,000 240 Level Albuquerque Center
09:15AM 34.4314 -102.8394 359° North 410 472 40,500 480 Climbing Albuquerque Center
09:16AM 34.5444 -102.8486 356° North 404 465 41,000 240 Climbing Albuquerque Center
09:17AM 34.6525 -102.8811 346° North 403 464 41,000  Level Albuquerque Center
09:18AM 34.7581 -102.9097 347° North 393 452 41,000  Level Albuquerque Center
09:19AM 34.8547 -102.9364 347° North 363 418 41,000  Level Albuquerque Center
09:20AM 34.9553 -102.9633 348° North 363 418 41,000  Level Albuquerque Center
09:21AM 35.0606 -102.9911 348° North 375 432 41,000  Level Albuquerque Center
09:22AM 35.1694 -103.0203 348° North 389 448 41,000  Level Albuquerque Center
09:23AM 35.2794 -103.0500 348° North 397 457 41,000  Level Albuquerque Center
09:24AM 35.3919 -103.0800 348° North 404 465 41,000  Level Albuquerque Center
09:25AM 35.5033 -103.1108 347° North 407 468 41,000  Level Albuquerque Center
09:26AM 35.6147 -103.1408 348° North 408 470 41,000  Level Albuquerque Center
09:27AM 35.7264 -103.1714 347° North 408 470 41,000  Level Albuquerque Center
09:28AM 35.8361 -103.2022 347° North 405 466 41,000  Level Albuquerque Center
09:29AM 35.9481 -103.2331 347° North 407 468 41,000  Level Albuquerque Center
09:30AM 36.0592 -103.2625 348° North 406 467 41,000  Level Albuquerque Center
09:31AM 36.1889 -103.2992 347° North 407 468 41,000  Level Albuquerque Center
09:32AM 36.3003 -103.3308 347° North 408 470 41,000  Level Albuquerque Center
09:33AM 36.4114 -103.3611 348° North 407 468 41,000  Level Albuquerque Center
09:34AM 36.5231 -103.3939 347° North 407 468 41,000  Level Albuquerque Center
09:35AM 36.6356 -103.4244 348° North 409 471 41,000 -480 Level Albuquerque Center
09:36AM 36.7458 -103.4553 347° North 407 468 40,100 -540 Descending Albuquerque Center
09:37AM 36.8514 -103.4853 347° North 405 466 40,000 -60 Descending Albuquerque Center
09:38AM 36.9744 -103.5192 348° North 406 467 40,000  Level Albuquerque Center
09:39AM 37.0814 -103.5483 348° North 409 471 40,000  Level Albuquerque Center
09:40AM 37.1878 -103.5794 347° North 410 472 40,000  Level Albuquerque Center
09:41AM 37.3144 -103.6008 352° North 414 476 40,000 -180 Level Albuquerque Center
09:42AM 37.4250 -103.6022 359° North 416 479 39,700 -720 Descending Albuquerque Center
09:43AM 37.5528 -103.6036 360° North 415 478 38,600 -840 Descending Albuquerque Center
09:44AM 37.6572 -103.6058 359° North 403 464 38,000 -720 Descending Albuquerque Center
09:46AM 37.8047 -103.6089 359° North 373 429 36,900 -900 Descending Denver Center
09:47AM 37.9044 -103.6108 359° North 374 430 35,900 -1,080 Descending Denver Center
09:48AM 38.0194 -103.6128 359° North 371 427 34,800 -1,080 Descending Denver Center
09:49AM 38.1214 -103.6147 359° North 379 436 33,800 -1,140 Descending Denver Center
09:50AM 38.2261 -103.6164 359° North 392 451 32,500 -2,160 Descending Denver Center
09:51AM 38.3533 -103.6178 360° North 410 472 29,400 -2,760 Descending Denver Center
09:52AM 38.4619 -103.6208 359° North 409 471 26,800 -2,700 Descending Denver Center
09:53AM 38.5794 -103.6633 344° North 399 459 23,900 -1,980 Descending Denver Center
09:54AM 38.6603 -103.7414 323° Northwest 384 442 22,800 -1,260 Descending Denver Center
09:55AM 38.7561 -103.8331 323° Northwest 386 444 21,400 -1,320 Descending Denver Center
09:56AM 38.8397 -103.9122 324° Northwest 390 449 20,200 -1,680 Descending Denver Center
09:57AM 38.9292 -103.9967 324° Northwest 379 436 18,000 -1,980 Descending Denver Center
09:58AM 39.0039 -104.0689 323° Northwest 345 397 16,200 -1,020 Descending Denver Center
09:59AM 39.0411 -104.1725 295° West 333 383 16,000 -120 Descending Denver Center
10:00AM 39.0714 -104.3006 287° West 335 386 16,000 -600 Level Denver Center
10:01AM 39.1122 -104.4092 296° West 356 410 14,800 -1,380 Descending Denver Center
10:02AM 39.1961 -104.4878 324° Northwest 336 387 13,200 -1,500 Descending Denver Center
10:03AM 39.2681 -104.5569 323° Northwest 323 372 11,700 -1,560 Descending Denver Center
10:04AM 39.3447 -104.6311 323° Northwest 316 364 10,100 -840 Descending Denver Center
10:05AM 39.4100 -104.6947 323° Northwest 294 338 10,000 -540 Descending Denver Center
10:06AM 39.4708 -104.7531 323° Northwest 272 313 9,100 -960 Descending Denver Center
10:07AM 39.5406 -104.7708 349° North 238 274 8,100 -660 Descending Denver Center
10:08AM 39.5986 -104.7722 359° North 209 241 7,800 -600 Descending Denver Center
10:09AM 39.6275 -104.8269 304° West 174 200 6,900 -840 Descending Denver Center
10:10AM 39.5972 -104.8533 214° Southwest 138 159 6,100 -780 Descending Denver Center
10:12AM 39.5667 -104.8333 127° Southeast  Level FlightAware Approximate